Time;durP1;ratioP1;P1;durP2;ratioP2;P2;SDS_P1;SDS_P2;PMS_P1;PMS_P2;Temp;Humidity;BMP_temperature;BMP_pressure;BME280_temperature;BME280_humidity;BME280_pressure;Samples;Min_cycle;Max_cycle;Signal;HPM_P1;HPM_P2
2023/02/28 00:00:18;;;;;;;17.92;10.95;;;;;;;;;;10029254;28;20053;-69
2023/02/28 00:05:13;;;;;;;13.05;9.70;;;;;;;;;;10027595;28;20053;-69
2023/02/28 00:10:08;;;;;;;15.85;10.13;;;;;;;;;;10028928;28;20050;-69
2023/02/28 00:15:02;;;;;;;11.52;9.48;;;;;;;;;;10028934;28;20048;-69
2023/02/28 00:19:55;;;;;;;10.35;9.32;;;;;;;;;;10029092;28;20088;-69
2023/02/28 00:24:48;;;;;;;12.65;9.15;;;;;;;;;;10023071;28;20053;-69
2023/02/28 00:29:41;;;;;;;12.82;10.10;;;;;;;;;;10028933;28;20058;-69
2023/02/28 00:34:37;;;;;;;19.10;10.65;;;;;;;;;;10022391;28;20062;-69
2023/02/28 00:39:30;;;;;;;14.32;9.88;;;;;;;;;;10027619;28;20511;-69
2023/02/28 00:44:23;;;;;;;15.15;9.38;;;;;;;;;;10027143;28;20475;-69
2023/02/28 00:49:18;;;;;;;9.73;8.27;;;;;;;;;;10028042;28;20070;-68
2023/02/28 00:54:11;;;;;;;8.93;8.00;;;;;;;;;;10027914;28;20049;-69
2023/02/28 00:59:05;;;;;;;11.55;8.07;;;;;;;;;;10027788;28;20411;-69
2023/02/28 01:03:58;;;;;;;13.63;9.13;;;;;;;;;;10027554;28;20050;-69
2023/02/28 01:08:51;;;;;;;10.05;8.48;;;;;;;;;;10027497;28;20140;-68
2023/02/28 01:13:45;;;;;;;14.55;9.45;;;;;;;;;;10027135;28;20129;-69
2023/02/28 01:18:39;;;;;;;12.18;8.73;;;;;;;;;;10026642;28;20076;-69
2023/02/28 01:23:32;;;;;;;16.90;9.10;;;;;;;;;;10014321;28;20050;-69
2023/02/28 01:28:26;;;;;;;14.00;9.30;;;;;;;;;;10025537;28;20046;-69
2023/02/28 01:33:22;;;;;;;12.18;10.07;;;;;;;;;;10026726;28;20128;-69
2023/02/28 01:38:15;;;;;;;14.20;9.30;;;;;;;;;;10025634;28;20525;-69
2023/02/28 01:43:27;;;;;;;11.43;9.38;;;;;;;;;;10026419;28;20507;-68
2023/02/28 01:48:22;;;;;;;21.17;9.23;;;;;;;;;;10020824;28;20084;-68
2023/02/28 01:53:19;;;;;;;12.52;8.85;;;;;;;;;;10024033;28;20062;-69
2023/02/28 01:58:11;;;;;;;11.73;9.30;;;;;;;;;;10025579;28;20064;-69
2023/02/28 02:03:09;;;;;;;13.52;9.30;;;;;;;;;;10008014;28;20137;-69
2023/02/28 02:08:05;;;;;;;11.70;8.68;;;;;;;;;;10025282;28;20124;-69
2023/02/28 02:13:07;;;;;;;10.10;8.75;;;;;;;;;;10024176;28;20085;-68
2023/02/28 02:18:26;;;;;;;11.98;9.52;;;;;;;;;;10034117;28;20134;-69
2023/02/28 02:23:54;;;;;;;11.82;8.32;;;;;;;;;;9994392;28;20053;-69
2023/02/28 02:29:17;;;;;;;11.82;9.02;;;;;;;;;;10022502;28;20072;-69
2023/02/28 02:34:24;;;;;;;11.00;9.05;;;;;;;;;;10031255;28;20129;-69
2023/02/28 02:39:29;;;;;;;12.23;8.50;;;;;;;;;;10026474;28;20054;-68
2023/02/28 02:44:36;;;;;;;9.85;7.85;;;;;;;;;;10030743;28;20057;-69
2023/02/28 02:49:31;;;;;;;15.73;10.00;;;;;;;;;;10009958;28;20054;-69
2023/02/28 02:54:29;;;;;;;9.07;8.20;;;;;;;;;;10009242;28;20054;-69
2023/02/28 02:59:23;;;;;;;15.57;10.23;;;;;;;;;;10030828;28;20077;-69
2023/02/28 03:04:21;;;;;;;11.50;8.80;;;;;;;;;;10032833;28;20042;-69
2023/02/28 03:09:15;;;;;;;14.10;10.55;;;;;;;;;;10031023;28;20061;-69
2023/02/28 03:14:31;;;;;;;11.75;8.85;;;;;;;;;;10030305;28;20057;-69
2023/02/28 03:19:36;;;;;;;9.15;7.95;;;;;;;;;;10025571;28;20104;-69
2023/02/28 03:24:37;;;;;;;10.02;8.93;;;;;;;;;;10030621;28;20084;-69
2023/02/28 03:29:39;;;;;;;10.15;8.98;;;;;;;;;;10030734;28;20048;-69
2023/02/28 03:34:36;;;;;;;9.88;8.85;;;;;;;;;;10029331;28;20124;-69
2023/02/28 03:39:55;;;;;;;8.40;7.53;;;;;;;;;;10029513;28;20044;-69
2023/02/28 03:45:02;;;;;;;12.27;8.05;;;;;;;;;;10026124;28;20054;-69
2023/02/28 03:50:13;;;;;;;9.60;8.18;;;;;;;;;;10029616;28;20057;-69
2023/02/28 03:55:16;;;;;;;11.13;8.75;;;;;;;;;;10027767;28;20513;-70
2023/02/28 04:00:20;;;;;;;11.10;8.85;;;;;;;;;;10028685;28;20053;-69
2023/02/28 04:05:14;;;;;;;11.45;9.10;;;;;;;;;;10012085;28;20081;-69
2023/02/28 04:10:08;;;;;;;10.98;9.50;;;;;;;;;;10020537;28;20525;-69
2023/02/28 04:15:02;;;;;;;15.50;9.40;;;;;;;;;;10028782;28;20672;-70
2023/02/28 04:19:56;;;;;;;10.05;9.05;;;;;;;;;;10021025;28;20057;-70
2023/02/28 04:24:50;;;;;;;11.93;9.80;;;;;;;;;;10029484;28;20116;-70
2023/02/28 04:29:44;;;;;;;12.02;9.57;;;;;;;;;;10028858;28;20070;-69
2023/02/28 04:34:38;;;;;;;16.75;10.77;;;;;;;;;;10028374;28;20068;-69
2023/02/28 04:39:36;;;;;;;11.75;9.57;;;;;;;;;;10011757;28;20058;-70
2023/02/28 04:44:31;;;;;;;10.70;9.50;;;;;;;;;;10015293;28;20042;-69
2023/02/28 04:49:24;;;;;;;12.45;10.30;;;;;;;;;;10027205;28;20049;-69
2023/02/28 04:54:18;;;;;;;13.55;11.20;;;;;;;;;;10026679;28;20061;-70
2023/02/28 04:59:12;;;;;;;15.75;10.27;;;;;;;;;;10027258;28;20050;-70
2023/02/28 05:04:05;;;;;;;12.48;10.48;;;;;;;;;;10015328;28;20117;-69
2023/02/28 05:08:58;;;;;;;11.05;9.85;;;;;;;;;;10018583;28;20081;-69
2023/02/28 05:13:53;;;;;;;11.27;9.85;;;;;;;;;;10015131;28;20068;-70
2023/02/28 05:18:46;;;;;;;12.25;9.48;;;;;;;;;;10026882;28;20053;-69
2023/02/28 05:23:39;;;;;;;11.70;9.13;;;;;;;;;;10008508;28;20042;-70
2023/02/28 05:28:33;;;;;;;12.52;10.77;;;;;;;;;;10024711;28;20546;-70
2023/02/28 05:33:27;;;;;;;10.43;9.35;;;;;;;;;;10026282;28;20384;-70
2023/02/28 05:38:20;;;;;;;10.75;9.00;;;;;;;;;;10026047;28;20049;-70
2023/02/28 05:43:13;;;;;;;9.50;8.52;;;;;;;;;;10025163;28;20614;-70
2023/02/28 05:48:06;;;;;;;12.45;11.00;;;;;;;;;;10026102;28;20517;-70
2023/02/28 05:52:58;;;;;;;15.15;11.43;;;;;;;;;;10024427;28;20065;-70
2023/02/28 05:57:52;;;;;;;13.23;10.48;;;;;;;;;;10018321;28;20136;-70
2023/02/28 06:02:47;;;;;;;13.88;10.82;;;;;;;;;;10011744;28;20056;-69
2023/02/28 06:07:40;;;;;;;11.68;9.95;;;;;;;;;;10031434;28;20049;-70
2023/02/28 06:12:33;;;;;;;13.45;10.90;;;;;;;;;;10032774;28;20045;-72
2023/02/28 06:17:27;;;;;;;11.25;9.00;;;;;;;;;;10031489;28;20069;-69
2023/02/28 06:22:20;;;;;;;16.35;11.63;;;;;;;;;;10032763;28;20108;-68
2023/02/28 06:27:14;;;;;;;13.73;10.80;;;;;;;;;;10027039;28;20042;-68
2023/02/28 06:32:07;;;;;;;10.15;9.10;;;;;;;;;;10031712;28;20539;-71
2023/02/28 06:37:02;;;;;;;14.57;10.45;;;;;;;;;;10036090;28;20050;-69
2023/02/28 06:41:54;;;;;;;12.93;9.98;;;;;;;;;;10026962;28;20053;-69
2023/02/28 06:46:48;;;;;;;15.00;10.50;;;;;;;;;;10038635;28;20054;-69
2023/02/28 06:51:46;;;;;;;11.75;9.98;;;;;;;;;;10033081;28;20490;-68
2023/02/28 06:56:38;;;;;;;16.85;11.68;;;;;;;;;;10027790;28;20066;-67
2023/02/28 07:01:32;;;;;;;13.25;9.88;;;;;;;;;;10031514;28;20054;-68
2023/02/28 07:06:26;;;;;;;12.68;11.32;;;;;;;;;;10036126;28;20133;-68
2023/02/28 07:11:25;;;;;;;12.30;11.07;;;;;;;;;;10037312;28;20060;-69
2023/02/28 07:16:19;;;;;;;;;;;;;;;;;;10037276;28;20577;-66
2023/02/28 07:21:13;;;;;;;19.90;11.35;;;;;;;;;;10019990;28;19925;-68
2023/02/28 07:26:07;;;;;;;11.60;9.48;;;;;;;;;;10023071;28;20050;-68
2023/02/28 07:31:04;;;;;;;13.05;10.15;;;;;;;;;;10000572;28;20054;-68
2023/02/28 07:36:22;;;;;;;11.80;9.27;;;;;;;;;;10030861;28;20050;-68
2023/02/28 07:41:16;;;;;;;10.52;9.35;;;;;;;;;;10030510;28;20579;-68
2023/02/28 07:46:12;;;;;;;13.85;10.05;;;;;;;;;;10024700;28;20527;-68
2023/02/28 07:51:05;;;;;;;14.77;10.50;;;;;;;;;;10025977;28;20112;-68
2023/02/28 07:56:02;;;;;;;11.98;9.68;;;;;;;;;;10026405;28;20057;-68
2023/02/28 08:00:55;;;;;;;16.00;10.10;;;;;;;;;;10029822;28;20050;-68
2023/02/28 08:05:48;;;;;;;15.07;12.23;;;;;;;;;;10019154;28;20054;-67
2023/02/28 08:10:41;;;;;;;12.40;11.10;;;;;;;;;;10014506;28;20167;-68
2023/02/28 08:15:34;;;;;;;14.27;11.50;;;;;;;;;;10028971;28;20517;-68
2023/02/28 08:20:27;;;;;;;14.30;12.23;;;;;;;;;;10028117;28;20042;-68
2023/02/28 08:25:21;;;;;;;15.15;11.27;;;;;;;;;;10028652;28;20093;-68
2023/02/28 08:30:16;;;;;;;14.27;10.68;;;;;;;;;;10023791;28;20462;-67
2023/02/28 08:35:10;;;;;;;17.40;11.20;;;;;;;;;;10024796;28;20047;-67
2023/02/28 08:40:03;;;;;;;12.63;10.68;;;;;;;;;;10028187;28;20056;-68
2023/02/28 08:44:57;;;;;;;12.48;11.27;;;;;;;;;;10024114;28;20061;-68
2023/02/28 08:49:50;;;;;;;13.48;11.05;;;;;;;;;;10025998;28;20070;-68
2023/02/28 08:54:43;;;;;;;13.05;10.65;;;;;;;;;;10024427;28;20119;-67
2023/02/28 08:59:36;;;;;;;14.93;10.63;;;;;;;;;;10027174;28;20052;-67
2023/02/28 09:04:30;;;;;;;12.57;10.38;;;;;;;;;;10018247;28;20089;-67
2023/02/28 09:09:23;;;;;;;13.32;11.13;;;;;;;;;;10023672;28;20068;-68
2023/02/28 09:14:17;;;;;;;11.82;9.35;;;;;;;;;;10026466;28;20396;-67
2023/02/28 09:19:11;;;;;;;14.38;10.63;;;;;;;;;;10020381;28;20050;-67
2023/02/28 09:24:06;;;;;;;13.18;10.88;;;;;;;;;;10013182;28;20076;-68
2023/02/28 09:28:59;;;;;;;13.18;11.48;;;;;;;;;;10015760;28;20046;-67
2023/02/28 09:33:55;;;;;;;14.65;11.52;;;;;;;;;;10027104;28;20050;-68
2023/02/28 09:38:51;;;;;;;17.27;10.60;;;;;;;;;;10026279;28;20077;-68
2023/02/28 09:43:46;;;;;;;17.45;10.43;;;;;;;;;;10022483;28;20050;-67
2023/02/28 09:48:42;;;;;;;13.95;12.15;;;;;;;;;;10014944;28;20045;-67
2023/02/28 09:53:39;;;;;;;13.23;11.65;;;;;;;;;;10020231;28;20056;-68
2023/02/28 09:59:00;;;;;;;18.52;11.48;;;;;;;;;;10012479;28;20422;-67
2023/02/28 10:04:05;;;;;;;12.57;11.35;;;;;;;;;;10017134;28;20549;-67
2023/02/28 10:09:04;;;;;;;16.08;12.63;;;;;;;;;;10014879;28;20667;-67
2023/02/28 10:14:02;;;;;;;14.70;11.33;;;;;;;;;;10009696;28;20490;-68
2023/02/28 10:19:04;;;;;;;18.52;12.88;;;;;;;;;;10014685;28;20300;-68
2023/02/28 10:24:03;;;;;;;15.57;13.00;;;;;;;;;;10023388;28;20580;-68
2023/02/28 10:28:57;;;;;;;16.60;11.13;;;;;;;;;;10026524;28;20054;-68
2023/02/28 10:33:51;;;;;;;15.32;13.13;;;;;;;;;;10023098;28;20121;-68
2023/02/28 10:38:45;;;;;;;19.60;14.73;;;;;;;;;;10002031;28;20081;-68
2023/02/28 10:43:40;;;;;;;15.55;13.80;;;;;;;;;;10011785;28;20058;-68
2023/02/28 10:49:00;;;;;;;17.63;15.23;;;;;;;;;;10025218;28;20050;-67
2023/02/28 10:53:55;;;;;;;16.00;14.30;;;;;;;;;;10013569;28;20131;-66
2023/02/28 10:59:03;;;;;;;16.58;13.90;;;;;;;;;;10032704;28;20457;-68
2023/02/28 11:03:57;;;;;;;15.73;12.23;;;;;;;;;;10023729;28;20050;-68
2023/02/28 11:08:55;;;;;;;19.33;15.25;;;;;;;;;;10030265;28;20060;-66
2023/02/28 11:13:52;;;;;;;49.10;35.05;;;;;;;;;;10030301;28;20057;-68
2023/02/28 11:18:51;;;;;;;33.08;25.88;;;;;;;;;;10027830;28;20050;-68
2023/02/28 11:23:45;;;;;;;15.45;12.20;;;;;;;;;;10030474;28;20408;-68
2023/02/28 11:28:40;;;;;;;18.30;15.30;;;;;;;;;;10031446;28;20140;-67
2023/02/28 11:33:53;;;;;;;18.70;15.23;;;;;;;;;;10017867;28;20573;-68
2023/02/28 11:38:49;;;;;;;21.77;14.88;;;;;;;;;;10021750;28;20104;-68
2023/02/28 11:44:13;;;;;;;16.50;14.43;;;;;;;;;;10030138;28;20065;-67
2023/02/28 11:49:27;;;;;;;16.98;14.02;;;;;;;;;;10026657;28;20050;-68
2023/02/28 11:54:38;;;;;;;16.80;12.63;;;;;;;;;;10030290;28;20116;-68
2023/02/28 11:59:35;;;;;;;15.90;14.20;;;;;;;;;;10018157;28;20129;-67
2023/02/28 12:04:48;;;;;;;20.40;14.52;;;;;;;;;;10021342;28;20042;-67
2023/02/28 12:09:58;;;;;;;17.13;15.32;;;;;;;;;;10006042;28;20066;-67
2023/02/28 12:15:21;;;;;;;16.50;14.75;;;;;;;;;;10020336;28;20459;-67
2023/02/28 12:20:20;;;;;;;14.80;13.25;;;;;;;;;;10028582;28;20081;-67
2023/02/28 12:25:36;;;;;;;16.63;12.75;;;;;;;;;;10028944;28;20054;-67
2023/02/28 12:30:32;;;;;;;13.93;12.52;;;;;;;;;;10028446;28;20108;-68
2023/02/28 12:35:41;;;;;;;16.08;14.45;;;;;;;;;;10026252;28;20077;-67
2023/02/28 12:40:48;;;;;;;18.52;13.45;;;;;;;;;;10015959;28;20043;-68
2023/02/28 12:46:10;;;;;;;13.63;11.88;;;;;;;;;;10016117;28;20482;-68
2023/02/28 12:51:03;;;;;;;18.88;14.52;;;;;;;;;;10010509;28;20050;-67
2023/02/28 12:56:10;;;;;;;17.90;15.25;;;;;;;;;;10027767;28;20108;-68
2023/02/28 13:01:50;;;;;;;17.00;13.30;;;;;;;;;;10017796;28;20422;-68
2023/02/28 13:07:01;;;;;;;;;;;;;;;;;;10027586;28;20042;-66
2023/02/28 13:11:55;;;;;;;15.45;12.98;;;;;;;;;;10027338;28;20394;-67
2023/02/28 13:17:08;;;;;;;19.35;13.63;;;;;;;;;;10027382;28;20054;-68
2023/02/28 13:22:03;;;;;;;21.60;14.70;;;;;;;;;;10007557;28;20046;-67
2023/02/28 13:27:02;;;;;;;15.73;13.98;;;;;;;;;;10015059;28;20494;-67
2023/02/28 13:32:18;;;;;;;18.98;14.80;;;;;;;;;;10022757;28;20501;-67
2023/02/28 13:37:21;;;;;;;24.90;22.20;;;;;;;;;;10015096;28;20142;-67
2023/02/28 13:42:39;;;;;;;19.92;16.85;;;;;;;;;;10021569;28;20060;-67
2023/02/28 13:47:43;;;;;;;23.70;21.05;;;;;;;;;;10018248;28;20054;-67
2023/02/28 13:52:48;;;;;;;21.83;17.10;;;;;;;;;;10020491;28;20557;-67
2023/02/28 13:58:06;;;;;;;21.13;17.45;;;;;;;;;;10024791;28;20077;-67
2023/02/28 14:03:17;;;;;;;27.25;24.00;;;;;;;;;;10020602;28;20046;-66
2023/02/28 14:08:23;;;;;;;21.40;18.85;;;;;;;;;;10016451;28;20050;-67
2023/02/28 14:13:25;;;;;;;29.42;19.85;;;;;;;;;;10021950;28;20050;-67
2023/02/28 14:18:22;;;;;;;24.08;19.38;;;;;;;;;;10000365;28;20058;-66
2023/02/28 14:23:41;;;;;;;22.23;19.58;;;;;;;;;;10004614;28;20050;-67
2023/02/28 14:28:42;;;;;;;22.52;20.13;;;;;;;;;;10021684;28;20041;-67
2023/02/28 14:33:57;;;;;;;22.90;18.85;;;;;;;;;;10015170;28;20069;-67
2023/02/28 14:39:13;;;;;;;26.50;20.13;;;;;;;;;;10016834;28;20053;-67
2023/02/28 14:44:24;;;;;;;25.77;20.27;;;;;;;;;;10014783;28;20054;-67
2023/02/28 14:49:31;;;;;;;22.38;19.98;;;;;;;;;;10028574;28;20128;-67
2023/02/28 14:54:23;;;;;;;28.58;19.52;;;;;;;;;;10020540;28;20050;-67
2023/02/28 14:59:27;;;;;;;24.50;19.00;;;;;;;;;;10017242;28;20038;-67
2023/02/28 15:04:27;;;;;;;26.27;19.48;;;;;;;;;;10015583;28;20058;-67
2023/02/28 15:09:21;;;;;;;25.75;19.25;;;;;;;;;;10027767;28;20046;-67
2023/02/28 15:14:34;;;;;;;23.33;20.80;;;;;;;;;;10028186;28;20111;-67
2023/02/28 15:19:30;;;;;;;23.23;19.50;;;;;;;;;;10026247;28;20057;-67
2023/02/28 15:24:32;;;;;;;24.20;19.70;;;;;;;;;;10027257;28;20544;-67
2023/02/28 15:29:29;;;;;;;28.60;25.42;;;;;;;;;;10032378;28;20046;-67
2023/02/28 15:34:28;;;;;;;23.27;19.70;;;;;;;;;;10027112;28;20049;-67
2023/02/28 15:39:42;;;;;;;21.17;16.77;;;;;;;;;;10023845;28;20061;-67
2023/02/28 15:44:36;;;;;;;23.75;16.98;;;;;;;;;;10025866;28;20149;-67
2023/02/28 15:49:40;;;;;;;26.23;19.17;;;;;;;;;;10025291;28;20041;-67
2023/02/28 15:54:37;;;;;;;21.70;16.02;;;;;;;;;;10020250;28;20519;-67
2023/02/28 15:59:31;;;;;;;18.10;15.30;;;;;;;;;;10025796;28;20095;-67
2023/02/28 16:04:29;;;;;;;18.75;16.17;;;;;;;;;;10025214;28;20133;-67
2023/02/28 16:09:23;;;;;;;18.85;16.85;;;;;;;;;;10029482;28;20506;-66
2023/02/28 16:14:20;;;;;;;19.67;16.63;;;;;;;;;;10028334;28;20046;-67
2023/02/28 16:19:13;;;;;;;17.45;15.65;;;;;;;;;;10024653;28;20399;-66
2023/02/28 16:24:07;;;;;;;21.67;18.23;;;;;;;;;;10015945;28;20050;-66
2023/02/28 16:29:04;;;;;;;21.35;17.33;;;;;;;;;;10027784;28;20046;-66
2023/02/28 16:33:56;;;;;;;25.23;17.05;;;;;;;;;;10023464;28;20049;-66
2023/02/28 16:38:50;;;;;;;22.33;16.58;;;;;;;;;;10017166;28;20049;-66
2023/02/28 16:43:44;;;;;;;23.65;18.70;;;;;;;;;;10027042;28;20065;-66
2023/02/28 16:48:42;;;;;;;22.50;18.20;;;;;;;;;;10021449;28;20118;-66
2023/02/28 16:53:35;;;;;;;24.10;19.23;;;;;;;;;;10026521;28;20073;-66
2023/02/28 16:58:28;;;;;;;24.48;18.65;;;;;;;;;;10024512;28;20053;-65
2023/02/28 17:03:25;;;;;;;26.35;18.10;;;;;;;;;;10015232;28;20410;-66
2023/02/28 17:08:26;;;;;;;23.02;18.42;;;;;;;;;;10025977;28;20057;-66
2023/02/28 17:13:19;;;;;;;23.67;17.95;;;;;;;;;;10026863;28;20041;-64
2023/02/28 17:18:18;;;;;;;18.08;16.23;;;;;;;;;;10025033;28;20145;-66
2023/02/28 17:23:11;;;;;;;;;;;;;;;;;;10022890;28;20049;-66
2023/02/28 17:28:06;;;;;;;24.67;16.98;;;;;;;;;;10016927;28;20345;-66
2023/02/28 17:32:59;;;;;;;26.08;17.92;;;;;;;;;;10024006;28;20423;-65
2023/02/28 17:37:52;;;;;;;25.42;21.40;;;;;;;;;;10025304;28;20042;-64
2023/02/28 17:42:45;;;;;;;28.17;22.60;;;;;;;;;;10009592;28;20133;-65
2023/02/28 17:47:38;;;;;;;26.20;18.73;;;;;;;;;;10016205;28;20038;-64
2023/02/28 17:52:36;;;;;;;24.70;20.05;;;;;;;;;;10022334;28;20054;-67
2023/02/28 17:57:29;;;;;;;30.33;21.87;;;;;;;;;;10021303;28;20058;-67
2023/02/28 18:02:24;;;;;;;25.30;21.17;;;;;;;;;;10020042;28;20479;-67
2023/02/28 18:07:19;;;;;;;25.75;20.55;;;;;;;;;;10015802;28;20074;-66
2023/02/28 18:12:13;;;;;;;25.48;21.10;;;;;;;;;;10013460;28;20060;-67
2023/02/28 18:17:06;;;;;;;30.33;23.65;;;;;;;;;;10026218;28;20384;-67
2023/02/28 18:21:59;;;;;;;35.47;27.13;;;;;;;;;;10014008;28;20046;-67
2023/02/28 18:26:53;;;;;;;25.95;21.00;;;;;;;;;;10025206;28;20054;-67
2023/02/28 18:31:46;;;;;;;26.95;23.05;;;;;;;;;;10024768;28;20479;-67
2023/02/28 18:36:41;;;;;;;29.92;21.83;;;;;;;;;;10023566;28;20136;-67
2023/02/28 18:41:34;;;;;;;32.10;22.80;;;;;;;;;;10022775;28;20076;-67
2023/02/28 18:46:27;;;;;;;36.78;24.42;;;;;;;;;;10024875;28;20041;-66
2023/02/28 18:51:23;;;;;;;42.45;27.77;;;;;;;;;;10024878;28;20058;-66
2023/02/28 18:56:19;;;;;;;33.58;26.00;;;;;;;;;;10025245;28;20129;-65
2023/02/28 19:01:32;;;;;;;34.95;26.33;;;;;;;;;;10024354;28;20054;-67
2023/02/28 19:06:25;;;;;;;31.58;25.55;;;;;;;;;;10022495;28;20045;-69
2023/02/28 19:11:20;;;;;;;35.30;24.73;;;;;;;;;;10017204;28;20502;-69
2023/02/28 19:16:15;;;;;;;29.85;23.35;;;;;;;;;;10026107;28;20064;-69
2023/02/28 19:21:12;;;;;;;32.42;22.85;;;;;;;;;;10029087;28;20054;-69
2023/02/28 19:26:16;;;;;;;30.80;25.27;;;;;;;;;;10028600;28;20057;-69
2023/02/28 19:31:29;;;;;;;32.35;25.33;;;;;;;;;;10031268;28;20064;-69
2023/02/28 19:36:23;;;;;;;33.42;26.63;;;;;;;;;;10030880;28;20052;-68
2023/02/28 19:41:18;;;;;;;41.90;29.35;;;;;;;;;;10022748;28;20077;-68
2023/02/28 19:46:11;;;;;;;36.78;27.73;;;;;;;;;;10024261;28;20121;-69
2023/02/28 19:51:11;;;;;;;31.50;27.50;;;;;;;;;;10021971;28;20534;-67
2023/02/28 19:56:05;;;;;;;36.53;28.30;;;;;;;;;;10027904;28;20061;-72
2023/02/28 20:01:07;;;;;;;49.25;36.42;;;;;;;;;;10025883;28;20507;-68
2023/02/28 20:06:02;;;;;;;39.17;32.83;;;;;;;;;;10023659;28;20128;-69
2023/02/28 20:10:55;;;;;;;42.13;34.55;;;;;;;;;;10026022;28;20073;-69
2023/02/28 20:15:49;;;;;;;40.33;32.75;;;;;;;;;;10011660;28;20077;-69
2023/02/28 20:20:43;;;;;;;45.15;35.03;;;;;;;;;;10007959;28;20056;-72
2023/02/28 20:25:39;;;;;;;43.55;32.47;;;;;;;;;;10005586;28;20072;-72
2023/02/28 20:30:32;;;;;;;42.65;29.35;;;;;;;;;;10010515;28;20054;-72
2023/02/28 20:35:25;;;;;;;45.47;27.90;;;;;;;;;;10012313;28;20057;-71
2023/02/28 20:40:19;;;;;;;35.85;27.58;;;;;;;;;;10019763;28;20038;-71
2023/02/28 20:45:11;;;;;;;36.40;26.80;;;;;;;;;;10007023;28;20050;-68
2023/02/28 20:50:06;;;;;;;35.47;26.85;;;;;;;;;;10005647;28;20054;-74
2023/02/28 20:55:00;;;;;;;34.33;24.85;;;;;;;;;;10009171;28;20520;-79
2023/02/28 20:59:53;;;;;;;30.70;25.77;;;;;;;;;;10010791;28;20050;-74
2023/02/28 21:04:46;;;;;;;34.45;28.10;;;;;;;;;;9995608;28;20049;-69
2023/02/28 21:09:40;;;;;;;34.55;27.58;;;;;;;;;;10004416;28;20047;-69
2023/02/28 21:14:34;;;;;;;32.80;26.63;;;;;;;;;;10016422;28;20057;-70
2023/02/28 21:19:28;;;;;;;32.03;26.77;;;;;;;;;;10020959;28;20077;-70
2023/02/28 21:24:21;;;;;;;37.67;26.85;;;;;;;;;;10019705;28;20565;-70
2023/02/28 21:29:14;;;;;;;34.45;27.65;;;;;;;;;;10011969;28;20038;-68
2023/02/28 21:34:10;;;;;;;36.00;28.15;;;;;;;;;;10013067;28;20482;-68
2023/02/28 21:39:14;;;;;;;34.50;26.35;;;;;;;;;;10018347;28;20046;-68
2023/02/28 21:44:07;;;;;;;41.25;30.27;;;;;;;;;;10014177;28;20049;-69
2023/02/28 21:49:00;;;;;;;32.30;27.38;;;;;;;;;;10011230;28;20046;-69
2023/02/28 21:53:53;;;;;;;35.75;27.67;;;;;;;;;;10013766;28;20057;-68
2023/02/28 21:58:48;;;;;;;33.95;28.48;;;;;;;;;;10016469;28;20096;-68
2023/02/28 22:03:41;;;;;;;33.17;27.23;;;;;;;;;;10014885;28;20108;-67
2023/02/28 22:08:34;;;;;;;35.08;26.35;;;;;;;;;;10009099;28;20043;-67
2023/02/28 22:13:27;;;;;;;36.85;26.35;;;;;;;;;;10010458;28;20046;-67
2023/02/28 22:18:20;;;;;;;28.67;25.58;;;;;;;;;;10005729;28;20041;-68
2023/02/28 22:23:13;;;;;;;34.88;27.83;;;;;;;;;;10002104;28;20057;-68
2023/02/28 22:28:07;;;;;;;31.08;25.20;;;;;;;;;;10015370;28;20558;-68
2023/02/28 22:33:00;;;;;;;28.75;23.75;;;;;;;;;;10006965;28;20133;-69
2023/02/28 22:37:53;;;;;;;30.77;22.63;;;;;;;;;;10007895;28;20042;-68
2023/02/28 22:42:47;;;;;;;31.25;24.40;;;;;;;;;;10005629;28;20045;-69
2023/02/28 22:47:40;;;;;;;36.25;24.35;;;;;;;;;;10002739;28;20052;-69
2023/02/28 22:52:35;;;;;;;27.20;23.15;;;;;;;;;;10007651;28;20053;-67
2023/02/28 22:57:29;;;;;;;27.63;22.95;;;;;;;;;;10019745;28;20104;-67
2023/02/28 23:02:23;;;;;;;29.42;23.10;;;;;;;;;;10013014;28;20411;-67
2023/02/28 23:07:16;;;;;;;29.88;23.55;;;;;;;;;;10015742;28;20061;-67
2023/02/28 23:12:09;;;;;;;25.92;20.67;;;;;;;;;;10009302;28;20462;-67
2023/02/28 23:17:02;;;;;;;27.83;21.70;;;;;;;;;;10023357;28;20579;-67
2023/02/28 23:21:56;;;;;;;29.58;22.25;;;;;;;;;;10011983;28;20050;-68
2023/02/28 23:26:51;;;;;;;26.58;22.25;;;;;;;;;;10010793;28;20061;-68
2023/02/28 23:31:46;;;;;;;26.05;22.05;;;;;;;;;;10026540;28;20045;-68
2023/02/28 23:36:44;;;;;;;25.45;22.02;;;;;;;;;;10023750;28;20053;-68
2023/02/28 23:41:39;;;;;;;29.20;22.35;;;;;;;;;;10027996;28;20054;-68
2023/02/28 23:46:32;;;;;;;26.98;18.92;;;;;;;;;;10026540;28;20046;-68
2023/02/28 23:51:25;;;;;;;23.98;18.75;;;;;;;;;;10030011;28;20068;-68
2023/02/28 23:56:21;;;;;;;22.58;18.05;;;;;;;;;;10030175;28;20103;-68
